Time;durP1;ratioP1;P1;durP2;ratioP2;P2;SDS_P1;SDS_P2;PMS_P1;PMS_P2;Temp;Humidity;BMP_temperature;BMP_pressure;BME280_temperature;BME280_humidity;BME280_pressure;Samples;Min_cycle;Max_cycle;Signal;HPM_P1;HPM_P2
2023/03/14 00:01:31;;;;;;;4.63;0.67;;;11.80;37.70;;;;;;5085886;28;20856;-63
2023/03/14 00:03:59;;;;;;;5.77;0.60;;;11.80;37.80;;;;;;5085271;28;20457;-64
2023/03/14 00:06:27;;;;;;;3.90;0.43;;;11.80;37.80;;;;;;5080172;28;20515;-63
2023/03/14 00:08:54;;;;;;;4.70;0.60;;;11.80;37.70;;;;;;5085589;28;20502;-63
2023/03/14 00:11:22;;;;;;;4.07;0.60;;;11.80;37.70;;;;;;5080729;28;20487;-64
2023/03/14 00:13:50;;;;;;;3.77;0.50;;;11.80;37.80;;;;;;5082905;28;20456;-62
2023/03/14 00:16:16;;;;;;;4.13;0.67;;;11.80;38.00;;;;;;5085651;28;20452;-64
2023/03/14 00:18:43;;;;;;;4.57;0.67;;;11.80;37.90;;;;;;5078569;28;21027;-63
2023/03/14 00:21:12;;;;;;;3.97;0.60;;;11.70;38.10;;;;;;5076528;28;20468;-63
2023/03/14 00:23:41;;;;;;;3.83;0.70;;;11.70;37.80;;;;;;5086685;28;20456;-64
2023/03/14 00:26:09;;;;;;;3.40;0.50;;;11.60;37.10;;;;;;5083679;28;20456;-64
2023/03/14 00:28:36;;;;;;;4.10;0.57;;;11.60;37.50;;;;;;5080588;28;20503;-64
2023/03/14 00:31:04;;;;;;;4.50;1.00;;;11.60;36.80;;;;;;5083662;28;20484;-64
2023/03/14 00:33:30;;;;;;;4.37;0.50;;;11.60;36.80;;;;;;5083980;28;20969;-64
2023/03/14 00:35:58;;;;;;;4.10;0.57;;;11.60;36.80;;;;;;5083297;28;20456;-63
2023/03/14 00:38:26;;;;;;;3.60;0.50;;;11.50;37.00;;;;;;5082293;28;20487;-63
2023/03/14 00:40:54;;;;;;;3.50;0.40;;;11.50;37.10;;;;;;5082458;28;20460;-63
2023/03/14 00:43:22;;;;;;;4.97;0.50;;;11.40;37.10;;;;;;5081607;28;20486;-63
2023/03/14 00:45:49;;;;;;;3.70;0.60;;;11.30;37.40;;;;;;5080670;28;20457;-64
2023/03/14 00:48:16;;;;;;;3.90;0.60;;;11.20;37.60;;;;;;5084292;28;20453;-63
2023/03/14 00:50:42;;;;;;;4.40;0.40;;;11.20;37.50;;;;;;5084803;28;20477;-63
2023/03/14 00:53:09;;;;;;;4.07;0.40;;;11.20;37.50;;;;;;5084288;28;20967;-63
2023/03/14 00:55:39;;;;;;;3.20;0.30;;;11.00;37.80;;;;;;5084172;28;20741;-63
2023/03/14 00:58:06;;;;;;;4.27;0.40;;;11.00;37.60;;;;;;5078173;28;20468;-63
2023/03/14 01:00:33;;;;;;;3.50;0.40;;;11.00;37.50;;;;;;5084536;28;20460;-62
2023/03/14 01:03:00;;;;;;;3.70;0.50;;;10.90;37.50;;;;;;5081765;28;20449;-64
2023/03/14 01:05:26;;;;;;;4.80;0.70;;;10.90;38.60;;;;;;5086372;28;20459;-63
2023/03/14 01:07:53;;;;;;;4.53;0.47;;;10.80;37.80;;;;;;5084073;28;20456;-64
2023/03/14 01:10:20;;;;;;;3.53;0.40;;;10.80;37.60;;;;;;5085425;28;20992;-64
2023/03/14 01:12:48;;;;;;;3.20;0.40;;;10.90;37.10;;;;;;5073854;28;20468;-62
2023/03/14 01:15:15;;;;;;;3.40;0.40;;;10.80;37.10;;;;;;5081914;28;20809;-63
2023/03/14 01:17:42;;;;;;;3.60;0.30;;;10.70;37.40;;;;;;5083897;28;20931;-63
2023/03/14 01:20:11;;;;;;;3.77;0.30;;;10.70;37.80;;;;;;5086232;28;20476;-62
2023/03/14 01:22:40;;;;;;;3.20;0.30;;;10.60;38.00;;;;;;5086134;28;20463;-63
2023/03/14 01:25:07;;;;;;;3.40;0.50;;;10.60;38.10;;;;;;5086140;28;20473;-63
2023/03/14 01:27:34;;;;;;;3.30;0.50;;;10.60;38.30;;;;;;5078462;28;20931;-63
2023/03/14 01:30:03;;;;;;;3.33;0.40;;;10.50;38.70;;;;;;5080503;28;20484;-64
2023/03/14 01:32:30;;;;;;;3.30;0.50;;;10.50;39.30;;;;;;5085134;28;20862;-62
2023/03/14 01:34:57;;;;;;;3.30;0.30;;;10.50;39.70;;;;;;5082897;28;20835;-63
2023/03/14 01:37:24;;;;;;;4.07;0.50;;;10.50;39.90;;;;;;5080981;28;20471;-63
2023/03/14 01:39:51;;;;;;;3.60;0.50;;;10.50;39.80;;;;;;5087864;28;20482;-63
2023/03/14 01:42:17;;;;;;;3.43;0.40;;;10.40;40.00;;;;;;5087303;28;20834;-63
2023/03/14 01:44:52;;;;;;;3.30;0.50;;;10.40;39.80;;;;;;5086128;28;20462;-63
2023/03/14 01:47:21;;;;;;;3.60;0.40;;;10.40;39.40;;;;;;5088987;28;20448;-63
2023/03/14 01:49:52;;;;;;;4.27;0.50;;;10.40;39.30;;;;;;5084536;28;20520;-63
2023/03/14 01:52:23;;;;;;;3.40;0.30;;;10.40;39.10;;;;;;5079763;28;20483;-63
2023/03/14 01:54:53;;;;;;;3.30;0.37;;;10.40;39.00;;;;;;5089038;28;20483;-64
2023/03/14 01:57:24;;;;;;;3.70;0.40;;;10.40;38.60;;;;;;5082724;28;20990;-64
2023/03/14 01:59:56;;;;;;;3.33;0.43;;;10.40;38.60;;;;;;5088963;28;20484;-64
2023/03/14 02:02:25;;;;;;;3.73;0.40;;;10.40;38.40;;;;;;5079538;28;20851;-64
2023/03/14 02:04:54;;;;;;;3.93;0.30;;;10.40;38.30;;;;;;5087905;28;20518;-64
2023/03/14 02:07:24;;;;;;;4.17;0.30;;;10.40;37.80;;;;;;5088217;28;20463;-64
2023/03/14 02:09:52;;;;;;;3.30;0.30;;;10.40;37.70;;;;;;5085874;28;20480;-64
2023/03/14 02:12:21;;;;;;;3.40;0.30;;;10.30;38.00;;;;;;5091643;28;20495;-64
2023/03/14 02:14:48;;;;;;;3.20;0.30;;;10.40;37.90;;;;;;5087724;28;20457;-63
2023/03/14 02:17:16;;;;;;;3.50;0.40;;;10.30;37.70;;;;;;5088158;28;20521;-63
2023/03/14 02:20:21;;;;;;;3.67;0.40;;;10.30;37.70;;;;;;5085906;28;20484;-64
2023/03/14 02:22:48;;;;;;;3.80;0.40;;;10.30;37.80;;;;;;5083306;28;20984;-63
2023/03/14 02:25:21;;;;;;;3.30;0.30;;;10.30;37.90;;;;;;5087589;28;20452;-63
2023/03/14 02:27:50;;;;;;;3.30;0.30;;;10.30;37.80;;;;;;5083367;28;20456;-63
2023/03/14 02:30:20;;;;;;;3.90;0.30;;;10.30;37.80;;;;;;5081236;28;20476;-63
2023/03/14 02:32:48;;;;;;;3.17;0.30;;;10.30;37.70;;;;;;5084501;28;20988;-63
2023/03/14 02:35:20;;;;;;;6.40;0.43;;;10.20;37.50;;;;;;5079919;28;20463;-63
2023/03/14 02:37:52;;;;;;;3.93;0.33;;;10.30;37.70;;;;;;5089371;28;20452;-64
2023/03/14 02:40:20;;;;;;;3.20;0.30;;;10.20;37.70;;;;;;5081648;28;20476;-63
2023/03/14 02:42:46;;;;;;;3.87;0.30;;;10.20;38.00;;;;;;5083665;28;20981;-64
2023/03/14 02:45:46;;;;;;;3.30;0.40;;;10.20;38.00;;;;;;5084869;28;20820;-63
2023/03/14 02:48:17;;;;;;;3.20;0.30;;;10.20;37.90;;;;;;5082780;28;20455;-63
2023/03/14 02:50:46;;;;;;;3.20;0.30;;;10.20;37.70;;;;;;5085267;28;20982;-63
2023/03/14 02:53:14;;;;;;;3.20;0.30;;;10.20;37.90;;;;;;5083941;28;20463;-63
2023/03/14 02:55:45;;;;;;;3.27;0.40;;;10.20;38.00;;;;;;5082396;28;20461;-63
2023/03/14 02:58:11;;;;;;;3.30;0.33;;;10.20;38.20;;;;;;5085063;28;21003;-63
2023/03/14 03:00:38;;;;;;;3.30;0.40;;;10.20;38.10;;;;;;5081937;28;20470;-63
2023/03/14 03:03:06;;;;;;;3.40;0.40;;;10.20;38.20;;;;;;5088754;28;20452;-63
2023/03/14 03:05:33;;;;;;;3.20;0.37;;;10.20;38.20;;;;;;5081210;28;20500;-63
2023/03/14 03:08:00;;;;;;;3.63;0.40;;;10.20;38.40;;;;;;5081451;28;20457;-65
2023/03/14 03:10:27;;;;;;;3.60;0.67;;;10.20;38.40;;;;;;5081124;28;20460;-62
2023/03/14 03:12:54;;;;;;;3.57;0.53;;;10.10;38.30;;;;;;5082543;28;20524;-64
2023/03/14 03:15:21;;;;;;;3.50;0.40;;;10.10;38.30;;;;;;5084219;28;20464;-63
2023/03/14 03:17:48;;;;;;;3.30;0.40;;;10.10;38.30;;;;;;5078736;28;20464;-63
2023/03/14 03:20:16;;;;;;;3.27;0.37;;;10.10;38.40;;;;;;5089459;28;20479;-63
2023/03/14 03:22:43;;;;;;;3.20;0.40;;;10.10;38.20;;;;;;5083770;28;20457;-63
2023/03/14 03:25:10;;;;;;;3.43;0.57;;;10.10;38.20;;;;;;5087354;28;20463;-63
2023/03/14 03:27:38;;;;;;;3.20;0.30;;;10.20;37.90;;;;;;5084812;28;20456;-63
2023/03/14 03:30:07;;;;;;;4.10;0.73;;;10.10;38.10;;;;;;5081434;28;20480;-64
2023/03/14 03:32:34;;;;;;;3.50;0.50;;;10.10;38.20;;;;;;5086954;28;20479;-63
2023/03/14 03:35:02;;;;;;;3.20;0.40;;;10.10;38.30;;;;;;5083383;28;20463;-64
2023/03/14 03:37:31;;;;;;;4.70;0.50;;;10.00;38.30;;;;;;5084935;28;21012;-64
2023/03/14 03:39:57;;;;;;;3.97;0.60;;;10.00;38.10;;;;;;5082726;28;20480;-63
2023/03/14 03:42:24;;;;;;;3.43;0.53;;;10.00;38.10;;;;;;5085847;28;20452;-63
2023/03/14 03:44:51;;;;;;;3.40;0.40;;;9.90;38.20;;;;;;5082993;28;20460;-63
2023/03/14 03:47:17;;;;;;;3.30;0.50;;;10.00;38.00;;;;;;5087551;28;20455;-63
2023/03/14 03:49:44;;;;;;;3.70;0.60;;;9.90;38.10;;;;;;5079980;28;20575;-64
2023/03/14 03:52:11;;;;;;;4.13;0.90;;;9.90;38.20;;;;;;5081140;28;20514;-63
2023/03/14 03:54:39;;;;;;;4.53;0.60;;;10.00;38.00;;;;;;5085261;28;20459;-63
2023/03/14 03:57:06;;;;;;;3.50;0.43;;;9.90;37.90;;;;;;5085664;28;20827;-63
2023/03/14 03:59:33;;;;;;;3.50;0.53;;;9.90;38.10;;;;;;5088128;28;20476;-63
2023/03/14 04:01:59;;;;;;;3.53;0.50;;;9.90;37.80;;;;;;5081612;28;20463;-63
2023/03/14 04:04:27;;;;;;;3.87;0.60;;;9.80;38.50;;;;;;5079616;28;20464;-64
2023/03/14 04:06:53;;;;;;;3.40;0.50;;;9.80;38.00;;;;;;5086936;28;20468;-64
2023/03/14 04:09:20;;;;;;;3.50;0.50;;;9.80;38.00;;;;;;5078574;28;20483;-64
2023/03/14 04:11:48;;;;;;;3.40;0.40;;;9.80;37.90;;;;;;5084974;28;20476;-64
2023/03/14 04:14:15;;;;;;;4.07;0.50;;;9.80;38.00;;;;;;5085950;28;21311;-64
2023/03/14 04:16:41;;;;;;;3.20;0.40;;;9.80;37.80;;;;;;5080106;28;20466;-63
2023/03/14 04:19:08;;;;;;;3.80;0.50;;;9.80;37.70;;;;;;5083213;28;20503;-63
2023/03/14 04:21:35;;;;;;;3.50;0.40;;;9.80;37.80;;;;;;5085794;28;20453;-64
2023/03/14 04:24:01;;;;;;;3.83;0.50;;;9.80;37.70;;;;;;5083771;28;20458;-63
2023/03/14 04:26:28;;;;;;;3.70;0.50;;;9.80;37.80;;;;;;5082720;28;20551;-63
2023/03/14 04:28:56;;;;;;;3.20;0.40;;;9.80;37.60;;;;;;5085042;28;21006;-64
2023/03/14 04:31:23;;;;;;;3.40;0.40;;;9.70;37.60;;;;;;5075613;28;21299;-66
2023/03/14 04:33:50;;;;;;;3.40;0.40;;;9.70;37.50;;;;;;5081094;28;20460;-63
2023/03/14 04:36:17;;;;;;;3.50;0.40;;;9.70;37.40;;;;;;5085939;28;20460;-63
2023/03/14 04:38:44;;;;;;;3.40;0.50;;;9.60;37.40;;;;;;5078732;28;20485;-63
2023/03/14 04:41:10;;;;;;;3.30;0.40;;;9.60;37.40;;;;;;5076399;28;20448;-62
2023/03/14 04:43:37;;;;;;;3.20;0.30;;;9.60;37.50;;;;;;5078480;28;21228;-61
2023/03/14 04:46:06;;;;;;;3.13;0.30;;;9.60;37.50;;;;;;5082867;28;20457;-60
2023/03/14 04:48:32;;;;;;;3.30;0.40;;;9.60;37.10;;;;;;5083367;28;20996;-61
2023/03/14 04:50:59;;;;;;;3.50;0.47;;;9.50;37.20;;;;;;5078670;28;20483;-60
2023/03/14 04:53:26;;;;;;;3.30;0.33;;;9.50;37.10;;;;;;5083463;28;20496;-61
2023/03/14 04:55:55;;;;;;;4.47;0.70;;;9.60;36.90;;;;;;5078310;28;20983;-60
2023/03/14 04:58:22;;;;;;;3.20;0.30;;;9.50;36.50;;;;;;5079577;28;20476;-60
2023/03/14 05:03:27;;;;;;;5.43;0.60;;;9.50;36.50;;;;;;5092634;28;20506;-63
2023/03/14 05:05:54;;;;;;;3.33;0.40;;;9.50;36.30;;;;;;5097123;28;21071;-69
2023/03/14 05:08:21;;;;;;;3.93;0.50;;;9.50;36.00;;;;;;5096572;28;20465;-69
2023/03/14 05:10:53;;;;;;;3.70;0.33;;;9.50;35.80;;;;;;5099267;28;20993;-61
2023/03/14 05:13:20;;;;;;;5.40;0.50;;;9.50;35.60;;;;;;5080072;28;20488;-61
2023/03/14 05:15:46;;;;;;;3.37;0.40;;;9.50;35.30;;;;;;5083969;28;20464;-61
2023/03/14 05:18:13;;;;;;;3.30;0.30;;;9.50;35.20;;;;;;5080274;28;20460;-62
2023/03/14 05:20:42;;;;;;;3.30;0.40;;;9.50;34.80;;;;;;5086649;28;20463;-61
2023/03/14 05:23:09;;;;;;;4.33;0.50;;;9.50;34.50;;;;;;5090024;28;20472;-61
2023/03/14 05:25:36;;;;;;;3.20;0.30;;;9.50;34.60;;;;;;5090120;28;20448;-61
2023/03/14 05:28:03;;;;;;;4.20;0.53;;;9.50;34.60;;;;;;5086634;28;20966;-61
2023/03/14 05:30:30;;;;;;;3.70;0.60;;;9.50;34.30;;;;;;5083798;28;20538;-61
2023/03/14 05:32:57;;;;;;;3.27;0.50;;;9.50;34.10;;;;;;5087850;28;20479;-62
2023/03/14 05:35:24;;;;;;;3.20;0.43;;;9.50;34.10;;;;;;5092292;28;20459;-62
2023/03/14 05:37:52;;;;;;;4.27;0.40;;;9.50;34.20;;;;;;5087046;28;20465;-61
2023/03/14 05:40:19;;;;;;;3.20;0.37;;;9.40;34.10;;;;;;5089824;28;20448;-61
2023/03/14 05:42:45;;;;;;;4.03;0.40;;;9.40;34.00;;;;;;5092683;28;20475;-61
2023/03/14 05:45:12;;;;;;;3.40;0.47;;;9.50;34.00;;;;;;5091733;28;20488;-61
2023/03/14 05:47:39;;;;;;;4.30;0.40;;;9.50;33.90;;;;;;5086764;28;20457;-61
2023/03/14 05:50:06;;;;;;;3.40;0.30;;;9.40;33.90;;;;;;5090366;28;20456;-61
2023/03/14 05:52:33;;;;;;;3.80;0.40;;;9.40;33.90;;;;;;5086854;28;20495;-61
2023/03/14 05:55:01;;;;;;;3.30;0.40;;;9.50;33.70;;;;;;5086432;28;20463;-62
2023/03/14 05:57:27;;;;;;;3.40;0.40;;;9.50;33.70;;;;;;5089058;28;20870;-62
2023/03/14 05:59:54;;;;;;;3.60;0.40;;;9.50;33.90;;;;;;5088520;28;20470;-62
2023/03/14 06:02:21;;;;;;;4.00;0.90;;;9.50;33.90;;;;;;5083917;28;20487;-62
2023/03/14 06:04:48;;;;;;;3.80;0.43;;;9.50;33.70;;;;;;5086728;28;20451;-62
2023/03/14 06:07:14;;;;;;;3.20;0.40;;;9.50;33.90;;;;;;5085826;28;21065;-62
2023/03/14 06:09:41;;;;;;;3.87;0.40;;;9.50;33.90;;;;;;5086813;28;20456;-62
2023/03/14 06:12:09;;;;;;;3.80;0.50;;;9.50;33.80;;;;;;5085570;28;20934;-62
2023/03/14 06:14:36;;;;;;;4.60;0.50;;;9.50;34.00;;;;;;5083872;28;20480;-62
2023/03/14 06:17:02;;;;;;;3.27;0.40;;;9.50;34.00;;;;;;5085198;28;20468;-62
2023/03/14 06:19:29;;;;;;;3.30;0.40;;;9.60;33.70;;;;;;5089114;28;20491;-62
2023/03/14 06:21:56;;;;;;;3.30;0.40;;;9.60;33.50;;;;;;5088309;28;20830;-62
2023/03/14 06:24:23;;;;;;;3.10;0.30;;;9.60;33.50;;;;;;5088557;28;20467;-62
2023/03/14 06:26:49;;;;;;;4.40;0.47;;;9.60;33.10;;;;;;5080119;28;20477;-63
2023/03/14 06:29:17;;;;;;;8.83;0.53;;;9.60;33.10;;;;;;5084156;28;20465;-62
2023/03/14 06:31:44;;;;;;;4.10;0.40;;;9.60;33.00;;;;;;5080343;28;20874;-62
2023/03/14 07:18:12;;;;;;;3.50;0.70;;;10.10;31.70;;;;;;5898456;22;20486;-72
2023/03/14 07:20:39;;;;;;;3.27;0.50;;;10.20;31.30;;;;;;5107657;28;20494;-72
2023/03/14 07:23:06;;;;;;;3.50;0.50;;;10.20;31.30;;;;;;5107588;28;20455;-71
2023/03/14 07:25:33;;;;;;;3.57;0.60;;;10.30;30.90;;;;;;5107307;28;20546;-72
2023/03/14 07:28:00;;;;;;;3.70;0.50;;;10.30;30.70;;;;;;5107441;28;20474;-72
2023/03/14 07:30:26;;;;;;;4.20;0.50;;;10.50;30.30;;;;;;5107377;27;20816;-71
2023/03/14 07:32:53;;;;;;;3.30;0.40;;;10.60;30.00;;;;;;5104732;28;21045;-70
2023/03/14 07:35:21;;;;;;;3.40;0.40;;;10.70;29.80;;;;;;5102914;28;21065;-73
2023/03/14 07:37:48;;;;;;;3.27;0.40;;;11.00;29.10;;;;;;5109839;27;20451;-72
2023/03/14 07:40:15;;;;;;;3.43;0.37;;;11.10;28.70;;;;;;5104186;27;20474;-74
2023/03/14 07:42:42;;;;;;;4.10;0.70;;;11.30;27.90;;;;;;5106635;27;20459;-71
2023/03/14 07:45:10;;;;;;;3.40;0.50;;;11.40;27.40;;;;;;5099996;28;20471;-72
2023/03/14 07:47:37;;;;;;;3.40;0.57;;;11.60;26.70;;;;;;5099989;27;20460;-71
2023/03/14 07:50:05;;;;;;;4.10;0.60;;;11.80;26.60;;;;;;5106483;27;20457;-71
2023/03/14 07:52:33;;;;;;;4.37;0.60;;;12.10;25.80;;;;;;5103652;28;20475;-71
2023/03/14 09:57:12;;;;;;;3.27;0.40;;;23.80;1.00;;;;;;4977243;28;20458;-74
2023/03/14 09:59:40;;;;;;;3.03;0.40;;;23.20;1.00;;;;;;4984564;28;20495;-75
2023/03/14 10:02:16;;;;;;;3.60;0.47;;;22.70;1.00;;;;;;4979348;28;20477;-75
2023/03/14 10:04:45;;;;;;;3.10;0.40;;;22.50;1.00;;;;;;4973864;28;20484;-74
2023/03/14 10:07:15;;;;;;;3.97;0.50;;;22.30;1.00;;;;;;4981658;28;20457;-74
2023/03/14 10:09:44;;;;;;;3.93;0.50;;;22.00;1.00;;;;;;4977528;28;20465;-73
2023/03/14 10:12:13;;;;;;;4.90;0.87;;;22.30;1.00;;;;;;4980048;28;20552;-74
2023/03/14 10:14:48;;;;;;;3.60;0.40;;;23.50;1.00;;;;;;4970535;28;20583;-73
2023/03/14 10:17:16;;;;;;;3.07;0.37;;;23.20;1.00;;;;;;4976351;28;20488;-74
2023/03/14 10:19:55;;;;;;;3.80;0.43;;;22.20;1.00;;;;;;4977719;28;20542;-74
2023/03/14 10:22:24;;;;;;;3.10;0.40;;;21.10;1.80;;;;;;4977231;28;20479;-74
2023/03/14 10:24:55;;;;;;;3.30;0.53;;;20.40;2.60;;;;;;4980366;28;20814;-74
2023/03/14 10:27:29;;;;;;;3.30;0.40;;;19.60;3.70;;;;;;4973747;28;20572;-74
2023/03/14 10:29:58;;;;;;;4.93;0.53;;;19.20;4.90;;;;;;4980412;28;20473;-74
2023/03/14 10:32:32;;;;;;;3.50;0.60;;;19.00;5.60;;;;;;4964360;28;20492;-74
2023/03/14 10:35:09;;;;;;;3.53;0.53;;;20.30;5.10;;;;;;4965156;28;20484;-74
2023/03/14 10:37:36;;;;;;;3.20;0.40;;;22.10;2.50;;;;;;4960422;28;20472;-75
2023/03/14 10:40:07;;;;;;;3.10;0.30;;;21.60;1.40;;;;;;4958989;28;20473;-74
2023/03/14 10:42:40;;;;;;;3.60;0.50;;;20.90;2.10;;;;;;4962906;28;20472;-74
2023/03/14 10:45:30;;;;;;;3.30;0.70;;;21.00;3.20;;;;;;4961316;28;20489;-74
2023/03/14 10:48:00;;;;;;;3.20;0.40;;;22.10;1.20;;;;;;4961885;28;21128;-74
2023/03/14 10:50:31;;;;;;;3.70;0.50;;;21.50;1.80;;;;;;4965561;28;20462;-74
2023/03/14 10:53:05;;;;;;;3.80;0.60;;;20.80;2.30;;;;;;4957363;28;20949;-74
2023/03/14 10:55:41;;;;;;;3.30;0.30;;;21.20;3.60;;;;;;4962169;28;20489;-74
2023/03/14 10:58:24;;;;;;;3.40;0.47;;;22.10;2.00;;;;;;4959753;28;20465;-74
2023/03/14 11:01:04;;;;;;;3.80;0.60;;;22.00;1.10;;;;;;4959884;28;20599;-74
2023/03/14 11:03:33;;;;;;;3.63;0.40;;;22.20;1.00;;;;;;4954613;28;20904;-74
2023/03/14 11:06:07;;;;;;;3.00;0.40;;;22.60;1.00;;;;;;4962522;28;20478;-74
2023/03/14 11:08:42;;;;;;;3.40;0.40;;;22.50;1.10;;;;;;4968331;28;20449;-74
2023/03/14 11:11:19;;;;;;;3.93;0.33;;;22.70;1.00;;;;;;4961789;28;20457;-74
2023/03/14 11:13:58;;;;;;;7.67;0.40;;;22.50;1.00;;;;;;4958656;28;20883;-72
2023/03/14 11:16:30;;;;;;;3.10;0.40;;;21.60;1.60;;;;;;4952352;28;21358;-74
2023/03/14 11:19:20;;;;;;;3.10;0.30;;;21.20;2.40;;;;;;4957865;28;20480;-75
2023/03/14 11:21:55;;;;;;;3.90;0.50;;;21.90;2.90;;;;;;4963148;28;20458;-74
2023/03/14 11:24:50;;;;;;;3.67;0.50;;;21.70;2.10;;;;;;4962390;28;21107;-74
2023/03/14 11:27:22;;;;;;;3.00;0.30;;;21.20;2.40;;;;;;4959561;28;20465;-74
2023/03/14 11:29:56;;;;;;;3.33;0.47;;;20.80;3.10;;;;;;4963777;28;20454;-74
2023/03/14 11:32:37;;;;;;;3.43;0.57;;;20.50;3.10;;;;;;4965767;28;21058;-74
2023/03/14 11:35:14;;;;;;;3.00;0.30;;;20.00;4.20;;;;;;4959843;28;20987;-74
2023/03/14 11:37:47;;;;;;;3.07;0.33;;;19.70;4.90;;;;;;4966647;28;20545;-74
2023/03/14 11:40:18;;;;;;;3.40;0.40;;;19.40;4.60;;;;;;4964627;28;20881;-74
2023/03/14 11:42:51;;;;;;;3.40;0.40;;;18.90;4.90;;;;;;4963058;28;20462;-74
2023/03/14 11:45:25;;;;;;;3.20;0.30;;;18.40;5.80;;;;;;4962525;28;20830;-74
2023/03/14 11:48:08;;;;;;;3.83;0.93;;;18.00;7.10;;;;;;4958163;28;20465;-74
2023/03/14 11:50:37;;;;;;;3.10;0.30;;;17.50;7.50;;;;;;4957134;28;20849;-74
2023/03/14 11:53:10;;;;;;;3.20;0.30;;;17.10;8.50;;;;;;4955597;28;20569;-74
2023/03/14 11:55:39;;;;;;;3.20;0.30;;;16.70;9.10;;;;;;4952821;28;20850;-74
2023/03/14 11:58:15;;;;;;;3.10;0.30;;;16.40;9.50;;;;;;4953646;28;20595;-74
2023/03/14 12:00:45;;;;;;;3.20;0.37;;;16.10;10.90;;;;;;4963875;28;20960;-74
2023/03/14 12:03:21;;;;;;;3.10;0.40;;;15.80;11.90;;;;;;4962032;28;20473;-73
2023/03/14 12:05:56;;;;;;;3.20;0.30;;;15.50;12.60;;;;;;4961235;28;20597;-75
2023/03/14 12:08:44;;;;;;;3.10;0.37;;;15.30;13.40;;;;;;4963312;28;20491;-74
2023/03/14 12:11:21;;;;;;;3.30;0.50;;;15.20;14.80;;;;;;4960477;28;20469;-74
2023/03/14 12:13:50;;;;;;;3.30;0.40;;;15.00;15.10;;;;;;4960636;28;21166;-75
2023/03/14 12:16:38;;;;;;;3.83;0.30;;;14.90;14.80;;;;;;4963731;28;20517;-74
2023/03/14 12:19:25;;;;;;;3.20;0.30;;;14.70;15.00;;;;;;4963793;28;20466;-74
2023/03/14 12:21:55;;;;;;;3.30;0.30;;;14.60;15.90;;;;;;4960298;28;20468;-74
2023/03/14 12:24:25;;;;;;;3.30;0.40;;;14.50;16.80;;;;;;4961978;28;20465;-74
2023/03/14 12:26:55;;;;;;;3.30;0.40;;;14.50;17.10;;;;;;4958969;28;20469;-74
2023/03/14 12:29:22;;;;;;;3.40;0.50;;;14.40;17.50;;;;;;4958191;28;20480;-75
2023/03/14 12:32:08;;;;;;;5.57;0.70;;;14.40;18.40;;;;;;4964320;28;20866;-74
2023/03/14 12:34:35;;;;;;;4.23;0.40;;;14.20;18.50;;;;;;4964735;28;21014;-74
2023/03/14 12:37:35;;;;;;;3.43;0.50;;;14.10;18.60;;;;;;4963370;28;20513;-75
2023/03/14 12:40:17;;;;;;;3.40;0.40;;;14.00;19.50;;;;;;4920743;28;21356;-74
2023/03/14 12:42:53;;;;;;;3.40;0.40;;;13.90;19.30;;;;;;4964028;28;20879;-74
2023/03/14 12:45:26;;;;;;;3.20;0.40;;;13.90;19.40;;;;;;4957893;28;20535;-74
2023/03/14 12:47:57;;;;;;;3.20;0.40;;;13.70;20.00;;;;;;4965397;28;20477;-74
2023/03/14 12:50:35;;;;;;;3.60;0.67;;;13.50;20.50;;;;;;4959335;28;20918;-74
2023/03/14 12:53:40;;;;;;;3.60;0.50;;;13.40;21.50;;;;;;4958900;28;20473;-74
2023/03/14 12:56:21;;;;;;;3.30;0.50;;;13.30;22.00;;;;;;4963554;28;20508;-74
2023/03/14 12:58:57;;;;;;;3.20;0.30;;;13.20;22.50;;;;;;4960288;28;20956;-74
2023/03/14 13:01:24;;;;;;;3.50;0.53;;;13.20;21.70;;;;;;4955079;28;20489;-75
2023/03/14 13:03:55;;;;;;;3.50;0.50;;;13.10;21.40;;;;;;4963649;28;20461;-75
2023/03/14 13:06:48;;;;;;;4.27;0.40;;;13.10;22.60;;;;;;4960542;28;20571;-74
2023/03/14 13:09:58;;;;;;;3.20;0.40;;;13.00;22.30;;;;;;4959481;28;20529;-74
2023/03/14 13:12:31;;;;;;;3.23;0.40;;;13.00;21.30;;;;;;4956353;28;20473;-73
2023/03/14 13:15:02;;;;;;;3.10;0.30;;;12.90;21.70;;;;;;4957894;28;20498;-73
2023/03/14 13:17:32;;;;;;;3.60;0.73;;;12.90;21.60;;;;;;4965550;28;20930;-74
2023/03/14 13:20:05;;;;;;;3.10;0.30;;;12.80;21.60;;;;;;4959909;28;20860;-73
2023/03/14 13:22:38;;;;;;;3.10;0.37;;;12.70;22.60;;;;;;4965685;28;20462;-73
2023/03/14 13:25:07;;;;;;;3.73;0.50;;;12.60;23.00;;;;;;4965317;28;20473;-73
2023/03/14 13:27:36;;;;;;;3.60;0.50;;;12.50;23.80;;;;;;4962384;28;20952;-73
2023/03/14 13:30:16;;;;;;;3.63;0.40;;;12.40;24.00;;;;;;4962039;28;20860;-73
2023/03/14 13:32:44;;;;;;;3.33;0.50;;;12.30;24.20;;;;;;5003643;28;20494;-72
2023/03/14 13:35:23;;;;;;;3.40;0.60;;;12.20;25.00;;;;;;4994601;28;20480;-73
2023/03/14 13:37:58;;;;;;;5.33;1.07;;;12.10;24.80;;;;;;5001789;28;20456;-73
2023/03/14 13:40:29;;;;;;;4.37;1.03;;;12.00;26.00;;;;;;4996943;28;20470;-73
2023/03/14 13:43:05;;;;;;;3.50;0.60;;;11.90;27.00;;;;;;5006467;28;20475;-73
2023/03/14 13:45:42;;;;;;;4.03;0.57;;;11.70;23.80;;;;;;5004656;28;21053;-72
2023/03/14 13:48:10;;;;;;;6.10;0.50;;;11.60;22.60;;;;;;4998750;28;20537;-73
2023/03/14 13:50:38;;;;;;;3.57;0.50;;;11.50;22.00;;;;;;5003225;28;20876;-72
2023/03/14 13:53:05;;;;;;;3.40;0.40;;;11.40;21.70;;;;;;5006152;28;20805;-73
2023/03/14 13:55:32;;;;;;;3.30;0.50;;;11.40;22.30;;;;;;4994421;28;20539;-73
2023/03/14 13:57:59;;;;;;;4.43;0.63;;;11.40;22.30;;;;;;5002890;28;20459;-73
2023/03/14 14:00:27;;;;;;;3.50;0.50;;;11.50;21.90;;;;;;5003384;28;20459;-73
2023/03/14 14:02:56;;;;;;;4.33;0.70;;;11.40;21.90;;;;;;4999759;28;20474;-73
2023/03/14 14:05:23;;;;;;;3.73;0.70;;;11.40;21.50;;;;;;5000949;28;20978;-73
2023/03/14 14:07:52;;;;;;;4.53;0.57;;;11.40;22.70;;;;;;5000929;28;20468;-73
2023/03/14 14:10:20;;;;;;;3.90;0.70;;;11.40;22.50;;;;;;5001326;28;20523;-73
2023/03/14 14:12:51;;;;;;;4.20;0.80;;;11.50;22.60;;;;;;5006350;28;20455;-73
2023/03/14 14:15:21;;;;;;;3.80;0.60;;;11.70;22.60;;;;;;5002886;28;20487;-73
2023/03/14 14:17:51;;;;;;;4.90;1.10;;;11.70;22.20;;;;;;5004537;28;20464;-73
2023/03/14 14:20:24;;;;;;;4.03;0.70;;;11.80;21.60;;;;;;4999206;28;21010;-73
2023/03/14 14:22:53;;;;;;;4.23;0.50;;;11.80;18.10;;;;;;5000120;28;20471;-73
2023/03/14 14:25:20;;;;;;;4.27;0.60;;;11.80;17.90;;;;;;5007532;28;20480;-73
2023/03/14 14:27:50;;;;;;;5.57;1.00;;;11.80;17.80;;;;;;4998174;28;20456;-73
2023/03/14 14:30:29;;;;;;;4.23;0.70;;;11.80;16.40;;;;;;5000797;28;20456;-73
2023/03/14 14:33:17;;;;;;;3.40;0.50;;;11.80;17.50;;;;;;4992527;28;20456;-73
2023/03/14 14:35:52;;;;;;;3.50;0.70;;;11.70;16.90;;;;;;5000393;28;20495;-74
2023/03/14 14:38:21;;;;;;;3.20;0.50;;;11.80;17.20;;;;;;5008495;28;20804;-73
2023/03/14 14:40:51;;;;;;;3.80;0.90;;;11.80;17.30;;;;;;5002804;28;20468;-73
2023/03/14 14:43:21;;;;;;;3.73;0.77;;;11.80;17.40;;;;;;5000553;28;20479;-73
2023/03/14 14:45:51;;;;;;;4.80;0.83;;;11.70;17.60;;;;;;5002755;28;20491;-73
2023/03/14 14:48:22;;;;;;;5.27;0.90;;;11.60;17.80;;;;;;5007660;28;20471;-73
2023/03/14 14:50:58;;;;;;;6.37;0.80;;;11.60;16.90;;;;;;5006820;28;21192;-73
2023/03/14 14:53:31;;;;;;;5.30;0.73;;;11.60;16.90;;;;;;4992795;28;20544;-73
2023/03/14 14:55:59;;;;;;;4.00;0.90;;;11.50;16.40;;;;;;5004417;28;21020;-73
2023/03/14 14:58:28;;;;;;;5.40;1.57;;;11.60;15.80;;;;;;5007659;28;20891;-73
2023/03/14 15:00:59;;;;;;;6.07;0.90;;;11.40;15.90;;;;;;5006026;28;20476;-73
2023/03/14 15:03:29;;;;;;;8.40;1.37;;;11.40;15.90;;;;;;5006294;28;20985;-73
2023/03/14 15:05:56;;;;;;;4.43;0.70;;;11.40;15.90;;;;;;4999387;28;20539;-73
2023/03/14 15:08:26;;;;;;;3.90;0.80;;;11.30;15.60;;;;;;5004684;28;20468;-73
2023/03/14 15:10:53;;;;;;;3.70;0.70;;;11.10;16.50;;;;;;5006516;28;20467;-73
2023/03/14 15:13:20;;;;;;;4.00;0.90;;;11.00;17.30;;;;;;5004066;28;22102;-73
2023/03/14 15:15:47;;;;;;;5.00;1.00;;;10.90;17.40;;;;;;5006202;28;20483;-73
2023/03/14 15:18:16;;;;;;;6.50;0.90;;;10.80;17.00;;;;;;4999575;28;20464;-73
2023/03/14 15:20:43;;;;;;;3.70;0.83;;;10.70;17.60;;;;;;5000994;28;20460;-73
2023/03/14 15:23:13;;;;;;;3.50;0.70;;;10.60;17.20;;;;;;5006854;28;20448;-73
2023/03/14 15:25:44;;;;;;;6.20;1.10;;;10.50;17.60;;;;;;4996814;28;20480;-73
2023/03/14 15:28:16;;;;;;;4.27;0.80;;;10.50;17.00;;;;;;5007051;28;20895;-73
2023/03/14 15:30:43;;;;;;;4.67;1.00;;;10.40;16.70;;;;;;4998717;28;20982;-73
2023/03/14 15:33:10;;;;;;;4.63;0.77;;;10.40;16.80;;;;;;5006200;28;20462;-73
2023/03/14 15:35:38;;;;;;;3.90;1.00;;;10.30;16.50;;;;;;4998025;28;20523;-73
2023/03/14 15:38:05;;;;;;;11.13;5.80;;;10.20;16.50;;;;;;5004667;28;20464;-73
2023/03/14 15:40:32;;;;;;;5.80;1.10;;;10.10;15.20;;;;;;4999408;28;20464;-73
2023/03/14 15:43:00;;;;;;;7.00;2.70;;;10.00;14.50;;;;;;4995101;28;20475;-73
2023/03/14 15:48:02;;;;;;;4.27;1.10;;;9.80;15.20;;;;;;5343707;22;20508;-66
2023/03/14 15:50:30;;;;;;;5.30;1.00;;;9.70;14.70;;;;;;5062236;28;20480;-68
2023/03/14 15:52:57;;;;;;;6.80;0.90;;;9.70;15.20;;;;;;5061121;28;20465;-69
2023/03/14 15:57:51;;;;;;;4.27;0.80;;;9.50;15.20;;;;;;5052757;28;20473;-69
2023/03/14 16:00:22;;;;;;;5.40;1.20;;;9.50;14.60;;;;;;5062580;28;21083;-68